<?xml version="1.0" encoding="utf-8"?>
<gpx xmlns:xsi="http://www.w3.org/2001/XMLSchema-instance" xmlns:xsd="http://www.w3.org/2001/XMLSchema" version="1.1" creator="Shapelink.com" xmlns="http://www.topografix.com/GPX/1/1" xmlns:gpxtpx="http://www.garmin.com/xmlschemas/TrackPointExtension/v1">
  <metadata>
    <name>Cycling 20.28 km, 2020-07-21</name>
    <desc></desc>
    <author><name>Marian Moron</name></author> 
    <time>2020-07-21T16:38:12Z</time>
  </metadata>
  <trk>
    <name>Cycling 20.28 km, 2020-07-21</name>
    <trkseg>
      <trkpt lat="51.228552914006" lon="4.44919885357">
        <ele>0</ele>
        <time>2020-07-21T16:38:12Z</time>
      </trkpt>
      <trkpt lat="51.228801269703" lon="4.448780512941">
        <ele>0</ele>
        <time>2020-07-21T16:38:35Z</time>
      </trkpt>
      <trkpt lat="51.228815602752" lon="4.448810939238">
        <ele>0</ele>
        <time>2020-07-21T16:38:40Z</time>
      </trkpt>
      <trkpt lat="51.228779225306" lon="4.448824015002">
        <ele>0</ele>
        <time>2020-07-21T16:38:43Z</time>
      </trkpt>
      <trkpt lat="51.228764808438" lon="4.448792163782">
        <ele>0</ele>
        <time>2020-07-21T16:38:45Z</time>
      </trkpt>
      <trkpt lat="51.228802443169" lon="4.448796941465">
        <ele>0</ele>
        <time>2020-07-21T16:38:49Z</time>
      </trkpt>
      <trkpt lat="51.228811160345" lon="4.448827870676">
        <ele>0</ele>
        <time>2020-07-21T16:38:50Z</time>
      </trkpt>
      <trkpt lat="51.228790289414" lon="4.448810436324">
        <ele>0</ele>
        <time>2020-07-21T16:38:55Z</time>
      </trkpt>
      <trkpt lat="51.228945103107" lon="4.448519584394">
        <ele>0</ele>
        <time>2020-07-21T16:39:07Z</time>
      </trkpt>
      <trkpt lat="51.228947952953" lon="4.448466946062">
        <ele>0</ele>
        <time>2020-07-21T16:39:09Z</time>
      </trkpt>
      <trkpt lat="51.228594404411" lon="4.447793460397">
        <ele>0</ele>
        <time>2020-07-21T16:39:32Z</time>
      </trkpt>
      <trkpt lat="51.228260972429" lon="4.447249978001">
        <ele>0</ele>
        <time>2020-07-21T16:39:50Z</time>
      </trkpt>
      <trkpt lat="51.227818659566" lon="4.447791113465">
        <ele>1.8</ele>
        <time>2020-07-21T16:40:11Z</time>
      </trkpt>
      <trkpt lat="51.227423369162" lon="4.448381199225">
        <ele>3.6</ele>
        <time>2020-07-21T16:40:29Z</time>
      </trkpt>
      <trkpt lat="51.227088093162" lon="4.449060133125">
        <ele>0</ele>
        <time>2020-07-21T16:40:48Z</time>
      </trkpt>
      <trkpt lat="51.226694814414" lon="4.449555168139">
        <ele>0</ele>
        <time>2020-07-21T16:41:11Z</time>
      </trkpt>
      <trkpt lat="51.226279323631" lon="4.450139470388">
        <ele>0.2</ele>
        <time>2020-07-21T16:41:34Z</time>
      </trkpt>
      <trkpt lat="51.225874058766" lon="4.450751432907">
        <ele>1.4</ele>
        <time>2020-07-21T16:41:54Z</time>
      </trkpt>
      <trkpt lat="51.225509781392" lon="4.451394743732">
        <ele>0</ele>
        <time>2020-07-21T16:42:13Z</time>
      </trkpt>
      <trkpt lat="51.225215995797" lon="4.452155568795">
        <ele>0</ele>
        <time>2020-07-21T16:42:32Z</time>
      </trkpt>
      <trkpt lat="51.225088842374" lon="4.453002056876">
        <ele>0</ele>
        <time>2020-07-21T16:42:49Z</time>
      </trkpt>
      <trkpt lat="51.22504978272" lon="4.453258962111">
        <ele>0</ele>
        <time>2020-07-21T16:42:56Z</time>
      </trkpt>
      <trkpt lat="51.224826069809" lon="4.45392289241">
        <ele>0</ele>
        <time>2020-07-21T16:43:16Z</time>
      </trkpt>
      <trkpt lat="51.224795308236" lon="4.454415915768">
        <ele>0</ele>
        <time>2020-07-21T16:43:28Z</time>
      </trkpt>
      <trkpt lat="51.224249143632" lon="4.454418095062">
        <ele>0.2</ele>
        <time>2020-07-21T16:43:49Z</time>
      </trkpt>
      <trkpt lat="51.223681353726" lon="4.454462351494">
        <ele>12.2</ele>
        <time>2020-07-21T16:44:08Z</time>
      </trkpt>
      <trkpt lat="51.223113228544" lon="4.454491352868">
        <ele>22.8</ele>
        <time>2020-07-21T16:44:25Z</time>
      </trkpt>
      <trkpt lat="51.222572595994" lon="4.454326816171">
        <ele>11</ele>
        <time>2020-07-21T16:44:46Z</time>
      </trkpt>
      <trkpt lat="51.222014948187" lon="4.454293707666">
        <ele>6.6</ele>
        <time>2020-07-21T16:45:06Z</time>
      </trkpt>
      <trkpt lat="51.221465179366" lon="4.454323631049">
        <ele>8.4</ele>
        <time>2020-07-21T16:45:25Z</time>
      </trkpt>
      <trkpt lat="51.220923205712" lon="4.454288846164">
        <ele>8.8</ele>
        <time>2020-07-21T16:45:53Z</time>
      </trkpt>
      <trkpt lat="51.22045566333" lon="4.454693943391">
        <ele>4.6</ele>
        <time>2020-07-21T16:46:13Z</time>
      </trkpt>
      <trkpt lat="51.220019720711" lon="4.455180512686">
        <ele>1.6</ele>
        <time>2020-07-21T16:46:31Z</time>
      </trkpt>
      <trkpt lat="51.219990384061" lon="4.455169197121">
        <ele>1.4</ele>
        <time>2020-07-21T16:46:32Z</time>
      </trkpt>
      <trkpt lat="51.219622837746" lon="4.45449118523">
        <ele>2.6</ele>
        <time>2020-07-21T16:46:49Z</time>
      </trkpt>
      <trkpt lat="51.219405914174" lon="4.453660287483">
        <ele>5.6</ele>
        <time>2020-07-21T16:47:04Z</time>
      </trkpt>
      <trkpt lat="51.219142806333" lon="4.452884458819">
        <ele>5</ele>
        <time>2020-07-21T16:47:21Z</time>
      </trkpt>
      <trkpt lat="51.219077846608" lon="4.452102679006">
        <ele>1.6</ele>
        <time>2020-07-21T16:47:45Z</time>
      </trkpt>
      <trkpt lat="51.219067369233" lon="4.452035959082">
        <ele>1.4</ele>
        <time>2020-07-21T16:47:47Z</time>
      </trkpt>
      <trkpt lat="51.21887483699" lon="4.451769498481">
        <ele>0</ele>
        <time>2020-07-21T16:47:55Z</time>
      </trkpt>
      <trkpt lat="51.218456328723" lon="4.451746280618">
        <ele>0</ele>
        <time>2020-07-21T16:48:05Z</time>
      </trkpt>
      <trkpt lat="51.218253235286" lon="4.452550523923">
        <ele>0</ele>
        <time>2020-07-21T16:48:20Z</time>
      </trkpt>
      <trkpt lat="51.218213253623" lon="4.453382762774">
        <ele>0</ele>
        <time>2020-07-21T16:48:41Z</time>
      </trkpt>
      <trkpt lat="51.218178217281" lon="4.454275267486">
        <ele>0</ele>
        <time>2020-07-21T16:49:04Z</time>
      </trkpt>
      <trkpt lat="51.218132955021" lon="4.455131310933">
        <ele>0</ele>
        <time>2020-07-21T16:49:25Z</time>
      </trkpt>
      <trkpt lat="51.218074281721" lon="4.455980732679">
        <ele>0</ele>
        <time>2020-07-21T16:49:49Z</time>
      </trkpt>
      <trkpt lat="51.218041089397" lon="4.456854126659">
        <ele>0</ele>
        <time>2020-07-21T16:50:08Z</time>
      </trkpt>
      <trkpt lat="51.218030695841" lon="4.457719809291">
        <ele>0</ele>
        <time>2020-07-21T16:50:25Z</time>
      </trkpt>
      <trkpt lat="51.218004544313" lon="4.458583564086">
        <ele>0</ele>
        <time>2020-07-21T16:50:42Z</time>
      </trkpt>
      <trkpt lat="51.217935728914" lon="4.459439775171">
        <ele>0</ele>
        <time>2020-07-21T16:50:59Z</time>
      </trkpt>
      <trkpt lat="51.217880240736" lon="4.460313672065">
        <ele>0</ele>
        <time>2020-07-21T16:51:16Z</time>
      </trkpt>
      <trkpt lat="51.217825506929" lon="4.461182288362">
        <ele>0</ele>
        <time>2020-07-21T16:51:37Z</time>
      </trkpt>
      <trkpt lat="51.217813185536" lon="4.46205836455">
        <ele>0</ele>
        <time>2020-07-21T16:51:56Z</time>
      </trkpt>
      <trkpt lat="51.217782340144" lon="4.462941984448">
        <ele>0.2</ele>
        <time>2020-07-21T16:52:13Z</time>
      </trkpt>
      <trkpt lat="51.217759876652" lon="4.463819820835">
        <ele>0</ele>
        <time>2020-07-21T16:52:32Z</time>
      </trkpt>
      <trkpt lat="51.217707908872" lon="4.464699165964">
        <ele>0</ele>
        <time>2020-07-21T16:52:49Z</time>
      </trkpt>
      <trkpt lat="51.217665747915" lon="4.465578511093">
        <ele>0</ele>
        <time>2020-07-21T16:53:06Z</time>
      </trkpt>
      <trkpt lat="51.217637500912" lon="4.466445199553">
        <ele>0</ele>
        <time>2020-07-21T16:53:24Z</time>
      </trkpt>
      <trkpt lat="51.217593412118" lon="4.467303254656">
        <ele>0.4</ele>
        <time>2020-07-21T16:53:43Z</time>
      </trkpt>
      <trkpt lat="51.217544880917" lon="4.46821319372">
        <ele>2</ele>
        <time>2020-07-21T16:54:05Z</time>
      </trkpt>
      <trkpt lat="51.217539265044" lon="4.469092371211">
        <ele>1.6</ele>
        <time>2020-07-21T16:54:20Z</time>
      </trkpt>
      <trkpt lat="51.2174909853" lon="4.469942631147">
        <ele>0</ele>
        <time>2020-07-21T16:54:38Z</time>
      </trkpt>
      <trkpt lat="51.217458463528" lon="4.470828011244">
        <ele>0.6</ele>
        <time>2020-07-21T16:54:55Z</time>
      </trkpt>
      <trkpt lat="51.217441029176" lon="4.47169922593">
        <ele>3.6</ele>
        <time>2020-07-21T16:55:15Z</time>
      </trkpt>
      <trkpt lat="51.217396772744" lon="4.471722611431">
        <ele>12.4</ele>
        <time>2020-07-21T16:55:49Z</time>
      </trkpt>
      <trkpt lat="51.217364670067" lon="4.472127373382">
        <ele>3.4</ele>
        <time>2020-07-21T17:02:07Z</time>
      </trkpt>
      <trkpt lat="51.217379338392" lon="4.472984422657">
        <ele>3.4</ele>
        <time>2020-07-21T17:02:31Z</time>
      </trkpt>
      <trkpt lat="51.217333321761" lon="4.473860750302">
        <ele>3</ele>
        <time>2020-07-21T17:02:54Z</time>
      </trkpt>
      <trkpt lat="51.217284706741" lon="4.474713860084">
        <ele>2.2</ele>
        <time>2020-07-21T17:03:18Z</time>
      </trkpt>
      <trkpt lat="51.217235756445" lon="4.475597228525">
        <ele>2</ele>
        <time>2020-07-21T17:03:41Z</time>
      </trkpt>
      <trkpt lat="51.217199462818" lon="4.476472298885">
        <ele>0.4</ele>
        <time>2020-07-21T17:04:03Z</time>
      </trkpt>
      <trkpt lat="51.217152691816" lon="4.477358181896">
        <ele>0</ele>
        <time>2020-07-21T17:04:25Z</time>
      </trkpt>
      <trkpt lat="51.217127127021" lon="4.47822956422">
        <ele>0</ele>
        <time>2020-07-21T17:04:43Z</time>
      </trkpt>
      <trkpt lat="51.217081026571" lon="4.479097426146">
        <ele>0</ele>
        <time>2020-07-21T17:05:02Z</time>
      </trkpt>
      <trkpt lat="51.217063927495" lon="4.479976687456">
        <ele>0.2</ele>
        <time>2020-07-21T17:05:21Z</time>
      </trkpt>
      <trkpt lat="51.217021766538" lon="4.480842789183">
        <ele>0</ele>
        <time>2020-07-21T17:05:41Z</time>
      </trkpt>
      <trkpt lat="51.217036853958" lon="4.481695647508">
        <ele>0</ele>
        <time>2020-07-21T17:06:02Z</time>
      </trkpt>
      <trkpt lat="51.217039536166" lon="4.481762115975">
        <ele>0</ele>
        <time>2020-07-21T17:06:04Z</time>
      </trkpt>
      <trkpt lat="51.217018581416" lon="4.481818526162">
        <ele>0</ele>
        <time>2020-07-21T17:06:06Z</time>
      </trkpt>
      <trkpt lat="51.216451294424" lon="4.481921455894">
        <ele>0.4</ele>
        <time>2020-07-21T17:06:25Z</time>
      </trkpt>
      <trkpt lat="51.215908901675" lon="4.48192262936">
        <ele>0.4</ele>
        <time>2020-07-21T17:06:40Z</time>
      </trkpt>
      <trkpt lat="51.215349912764" lon="4.481811317728">
        <ele>0.4</ele>
        <time>2020-07-21T17:06:56Z</time>
      </trkpt>
      <trkpt lat="51.214823110349" lon="4.481576959804">
        <ele>0.4</ele>
        <time>2020-07-21T17:07:11Z</time>
      </trkpt>
      <trkpt lat="51.214307372042" lon="4.481232128438">
        <ele>0.4</ele>
        <time>2020-07-21T17:07:26Z</time>
      </trkpt>
      <trkpt lat="51.213805715327" lon="4.480820241872">
        <ele>0.6</ele>
        <time>2020-07-21T17:07:42Z</time>
      </trkpt>
      <trkpt lat="51.213299951481" lon="4.48041724012">
        <ele>0.8</ele>
        <time>2020-07-21T17:07:59Z</time>
      </trkpt>
      <trkpt lat="51.212807431037" lon="4.479993451256">
        <ele>0.2</ele>
        <time>2020-07-21T17:08:20Z</time>
      </trkpt>
      <trkpt lat="51.212319688276" lon="4.479616098118">
        <ele>0.2</ele>
        <time>2020-07-21T17:08:39Z</time>
      </trkpt>
      <trkpt lat="51.211868071504" lon="4.479134474144">
        <ele>0</ele>
        <time>2020-07-21T17:08:58Z</time>
      </trkpt>
      <trkpt lat="51.211464147743" lon="4.478522260168">
        <ele>0</ele>
        <time>2020-07-21T17:09:23Z</time>
      </trkpt>
      <trkpt lat="51.211103390767" lon="4.477871824728">
        <ele>0</ele>
        <time>2020-07-21T17:09:47Z</time>
      </trkpt>
      <trkpt lat="51.210810946276" lon="4.477132624967">
        <ele>0</ele>
        <time>2020-07-21T17:10:00Z</time>
      </trkpt>
      <trkpt lat="51.21056585952" lon="4.476338691399">
        <ele>3.2</ele>
        <time>2020-07-21T17:10:17Z</time>
      </trkpt>
      <trkpt lat="51.210399981719" lon="4.475480217201">
        <ele>0</ele>
        <time>2020-07-21T17:10:36Z</time>
      </trkpt>
      <trkpt lat="51.210230332063" lon="4.474656192612">
        <ele>0</ele>
        <time>2020-07-21T17:10:55Z</time>
      </trkpt>
      <trkpt lat="51.209966134575" lon="4.473855218248">
        <ele>0</ele>
        <time>2020-07-21T17:11:16Z</time>
      </trkpt>
      <trkpt lat="51.209589284351" lon="4.473199166935">
        <ele>0</ele>
        <time>2020-07-21T17:11:34Z</time>
      </trkpt>
      <trkpt lat="51.209087376179" lon="4.472624084776">
        <ele>1.8</ele>
        <time>2020-07-21T17:11:56Z</time>
      </trkpt>
      <trkpt lat="51.208556550452" lon="4.472410430145">
        <ele>2.2</ele>
        <time>2020-07-21T17:12:18Z</time>
      </trkpt>
      <trkpt lat="51.208043997267" lon="4.472105496623">
        <ele>2.8</ele>
        <time>2020-07-21T17:12:41Z</time>
      </trkpt>
      <trkpt lat="51.207518116861" lon="4.471852447062">
        <ele>2.6</ele>
        <time>2020-07-21T17:13:02Z</time>
      </trkpt>
      <trkpt lat="51.206979412148" lon="4.471614484921">
        <ele>6.8</ele>
        <time>2020-07-21T17:13:22Z</time>
      </trkpt>
      <trkpt lat="51.206446826222" lon="4.471352718184">
        <ele>9.2</ele>
        <time>2020-07-21T17:13:41Z</time>
      </trkpt>
      <trkpt lat="51.205886580026" lon="4.47115272605">
        <ele>13.8</ele>
        <time>2020-07-21T17:14:00Z</time>
      </trkpt>
      <trkpt lat="51.205744171545" lon="4.471106960876">
        <ele>16.6</ele>
        <time>2020-07-21T17:14:05Z</time>
      </trkpt>
      <trkpt lat="51.205777782964" lon="4.470977125245">
        <ele>10</ele>
        <time>2020-07-21T17:15:18Z</time>
      </trkpt>
      <trkpt lat="51.205233713835" lon="4.470763470614">
        <ele>11.8</ele>
        <time>2020-07-21T17:15:40Z</time>
      </trkpt>
      <trkpt lat="51.204711521465" lon="4.470520814609">
        <ele>11.2</ele>
        <time>2020-07-21T17:15:58Z</time>
      </trkpt>
      <trkpt lat="51.204166949422" lon="4.470372874074">
        <ele>12.4</ele>
        <time>2020-07-21T17:16:16Z</time>
      </trkpt>
      <trkpt lat="51.203636207514" lon="4.470148825887">
        <ele>13.2</ele>
        <time>2020-07-21T17:16:36Z</time>
      </trkpt>
      <trkpt lat="51.203094569136" lon="4.4698744863">
        <ele>25</ele>
        <time>2020-07-21T17:16:58Z</time>
      </trkpt>
      <trkpt lat="51.202722412776" lon="4.46923075638">
        <ele>27.8</ele>
        <time>2020-07-21T17:17:15Z</time>
      </trkpt>
      <trkpt lat="51.202590230213" lon="4.468381334634">
        <ele>12.4</ele>
        <time>2020-07-21T17:17:29Z</time>
      </trkpt>
      <trkpt lat="51.202613196619" lon="4.467499558754">
        <ele>5.4</ele>
        <time>2020-07-21T17:17:45Z</time>
      </trkpt>
      <trkpt lat="51.202575561888" lon="4.467182722934">
        <ele>6.6</ele>
        <time>2020-07-21T17:17:53Z</time>
      </trkpt>
      <trkpt lat="51.202025290153" lon="4.467069232008">
        <ele>5.4</ele>
        <time>2020-07-21T17:18:15Z</time>
      </trkpt>
      <trkpt lat="51.20146227793" lon="4.467065041058">
        <ele>6.6</ele>
        <time>2020-07-21T17:18:33Z</time>
      </trkpt>
      <trkpt lat="51.200914269308" lon="4.467024891757">
        <ele>7.4</ele>
        <time>2020-07-21T17:18:51Z</time>
      </trkpt>
      <trkpt lat="51.200350418895" lon="4.467002931179">
        <ele>4.4</ele>
        <time>2020-07-21T17:19:11Z</time>
      </trkpt>
      <trkpt lat="51.19997616706" lon="4.466865887114">
        <ele>5.4</ele>
        <time>2020-07-21T17:19:25Z</time>
      </trkpt>
      <trkpt lat="51.199990332471" lon="4.466798245181">
        <ele>5</ele>
        <time>2020-07-21T17:19:27Z</time>
      </trkpt>
      <trkpt lat="51.200308425576" lon="4.466096428694">
        <ele>0</ele>
        <time>2020-07-21T17:19:47Z</time>
      </trkpt>
      <trkpt lat="51.200614364926" lon="4.465369466507">
        <ele>0</ele>
        <time>2020-07-21T17:20:07Z</time>
      </trkpt>
      <trkpt lat="51.200622998283" lon="4.465315654709">
        <ele>0</ele>
        <time>2020-07-21T17:20:09Z</time>
      </trkpt>
      <trkpt lat="51.200133411504" lon="4.465012229929">
        <ele>5.4</ele>
        <time>2020-07-21T17:20:31Z</time>
      </trkpt>
      <trkpt lat="51.199593030411" lon="4.464963363452">
        <ele>7.4</ele>
        <time>2020-07-21T17:20:52Z</time>
      </trkpt>
      <trkpt lat="51.199052565499" lon="4.464842161178">
        <ele>4.8</ele>
        <time>2020-07-21T17:21:10Z</time>
      </trkpt>
      <trkpt lat="51.198494079502" lon="4.464698830688">
        <ele>5.2</ele>
        <time>2020-07-21T17:21:28Z</time>
      </trkpt>
      <trkpt lat="51.197938443351" lon="4.464767143173">
        <ele>5</ele>
        <time>2020-07-21T17:21:46Z</time>
      </trkpt>
      <trkpt lat="51.197380544087" lon="4.464802514791">
        <ele>5.6</ele>
        <time>2020-07-21T17:22:04Z</time>
      </trkpt>
      <trkpt lat="51.196816777493" lon="4.464678797947">
        <ele>6.2</ele>
        <time>2020-07-21T17:22:23Z</time>
      </trkpt>
      <trkpt lat="51.196253346175" lon="4.464556003112">
        <ele>6</ele>
        <time>2020-07-21T17:22:41Z</time>
      </trkpt>
      <trkpt lat="51.195692261789" lon="4.464483080582">
        <ele>5</ele>
        <time>2020-07-21T17:22:59Z</time>
      </trkpt>
      <trkpt lat="51.195477768968" lon="4.463893497736">
        <ele>1.6</ele>
        <time>2020-07-21T17:23:20Z</time>
      </trkpt>
      <trkpt lat="51.195447258852" lon="4.463014152607">
        <ele>0.6</ele>
        <time>2020-07-21T17:23:40Z</time>
      </trkpt>
      <trkpt lat="51.195503501401" lon="4.462174621503">
        <ele>2.8</ele>
        <time>2020-07-21T17:23:58Z</time>
      </trkpt>
      <trkpt lat="51.195831401329" lon="4.461493340671">
        <ele>4.8</ele>
        <time>2020-07-21T17:24:18Z</time>
      </trkpt>
      <trkpt lat="51.195872640277" lon="4.461307513948">
        <ele>5.2</ele>
        <time>2020-07-21T17:24:23Z</time>
      </trkpt>
      <trkpt lat="51.195530994033" lon="4.460648193694">
        <ele>8.6</ele>
        <time>2020-07-21T17:24:47Z</time>
      </trkpt>
      <trkpt lat="51.195515403699" lon="4.460530595637">
        <ele>7.2</ele>
        <time>2020-07-21T17:24:51Z</time>
      </trkpt>
      <trkpt lat="51.195953190336" lon="4.45997043326">
        <ele>3.4</ele>
        <time>2020-07-21T17:25:13Z</time>
      </trkpt>
      <trkpt lat="51.19641469775" lon="4.45956558749">
        <ele>5.2</ele>
        <time>2020-07-21T17:25:35Z</time>
      </trkpt>
      <trkpt lat="51.196461887847" lon="4.459565671309">
        <ele>5</ele>
        <time>2020-07-21T17:25:38Z</time>
      </trkpt>
      <trkpt lat="51.196741927126" lon="4.459676563846">
        <ele>7.6</ele>
        <time>2020-07-21T17:32:13Z</time>
      </trkpt>
      <trkpt lat="51.196740418384" lon="4.459415886756">
        <ele>7.8</ele>
        <time>2020-07-21T17:32:17Z</time>
      </trkpt>
      <trkpt lat="51.19709363165" lon="4.459427118502">
        <ele>7.4</ele>
        <time>2020-07-21T17:32:36Z</time>
      </trkpt>
      <trkpt lat="51.196874361146" lon="4.459306922056">
        <ele>7.4</ele>
        <time>2020-07-21T17:32:44Z</time>
      </trkpt>
      <trkpt lat="51.196361807961" lon="4.459109695949">
        <ele>5.8</ele>
        <time>2020-07-21T17:33:02Z</time>
      </trkpt>
      <trkpt lat="51.195864761291" lon="4.458856814026">
        <ele>6.2</ele>
        <time>2020-07-21T17:33:20Z</time>
      </trkpt>
      <trkpt lat="51.195401577497" lon="4.458393965508">
        <ele>7.4</ele>
        <time>2020-07-21T17:33:41Z</time>
      </trkpt>
      <trkpt lat="51.194926994319" lon="4.457958022889">
        <ele>13</ele>
        <time>2020-07-21T17:34:01Z</time>
      </trkpt>
      <trkpt lat="51.194405975415" lon="4.457649149874">
        <ele>12.4</ele>
        <time>2020-07-21T17:34:16Z</time>
      </trkpt>
      <trkpt lat="51.194123337747" lon="4.457340444497">
        <ele>11</ele>
        <time>2020-07-21T17:34:27Z</time>
      </trkpt>
      <trkpt lat="51.194399856628" lon="4.456580289986">
        <ele>5.8</ele>
        <time>2020-07-21T17:34:44Z</time>
      </trkpt>
      <trkpt lat="51.194636561484" lon="4.456006381293">
        <ele>2.6</ele>
        <time>2020-07-21T17:35:01Z</time>
      </trkpt>
      <trkpt lat="51.194627089937" lon="4.455916527325">
        <ele>2.4</ele>
        <time>2020-07-21T17:35:05Z</time>
      </trkpt>
      <trkpt lat="51.194903273542" lon="4.455161569592">
        <ele>2.6</ele>
        <time>2020-07-21T17:35:24Z</time>
      </trkpt>
      <trkpt lat="51.195177445491" lon="4.454410551352">
        <ele>3.2</ele>
        <time>2020-07-21T17:35:42Z</time>
      </trkpt>
      <trkpt lat="51.195349777355" lon="4.453994892931">
        <ele>4.8</ele>
        <time>2020-07-21T17:35:53Z</time>
      </trkpt>
      <trkpt lat="51.195513140586" lon="4.453980308425">
        <ele>4.6</ele>
        <time>2020-07-21T17:36:01Z</time>
      </trkpt>
      <trkpt lat="51.195774152952" lon="4.453209173625">
        <ele>3.2</ele>
        <time>2020-07-21T17:36:19Z</time>
      </trkpt>
      <trkpt lat="51.195990657429" lon="4.452396799877">
        <ele>6</ele>
        <time>2020-07-21T17:36:37Z</time>
      </trkpt>
      <trkpt lat="51.196090150582" lon="4.452174008975">
        <ele>5.6</ele>
        <time>2020-07-21T17:36:44Z</time>
      </trkpt>
      <trkpt lat="51.196621563042" lon="4.452355393291">
        <ele>6</ele>
        <time>2020-07-21T17:37:06Z</time>
      </trkpt>
      <trkpt lat="51.197153478416" lon="4.452540130367">
        <ele>7.4</ele>
        <time>2020-07-21T17:37:26Z</time>
      </trkpt>
      <trkpt lat="51.197675251691" lon="4.452800136905">
        <ele>8.2</ele>
        <time>2020-07-21T17:37:45Z</time>
      </trkpt>
      <trkpt lat="51.198194258939" lon="4.453046816222">
        <ele>3.2</ele>
        <time>2020-07-21T17:38:01Z</time>
      </trkpt>
      <trkpt lat="51.19865098867" lon="4.452770967893">
        <ele>0</ele>
        <time>2020-07-21T17:38:20Z</time>
      </trkpt>
      <trkpt lat="51.198983414824" lon="4.452053477253">
        <ele>0</ele>
        <time>2020-07-21T17:38:40Z</time>
      </trkpt>
      <trkpt lat="51.199246606484" lon="4.451268847594">
        <ele>0</ele>
        <time>2020-07-21T17:38:58Z</time>
      </trkpt>
      <trkpt lat="51.199570566919" lon="4.450526462711">
        <ele>0</ele>
        <time>2020-07-21T17:39:15Z</time>
      </trkpt>
      <trkpt lat="51.199712221029" lon="4.450339546341">
        <ele>0</ele>
        <time>2020-07-21T17:39:22Z</time>
      </trkpt>
      <trkpt lat="51.199818922616" lon="4.450305851103">
        <ele>0</ele>
        <time>2020-07-21T17:39:33Z</time>
      </trkpt>
      <trkpt lat="51.19982613105" lon="4.45029855885">
        <ele>0</ele>
        <time>2020-07-21T17:39:34Z</time>
      </trkpt>
      <trkpt lat="51.199862424677" lon="4.450318088677">
        <ele>0</ele>
        <time>2020-07-21T17:39:37Z</time>
      </trkpt>
      <trkpt lat="51.200239526358" lon="4.450262265223">
        <ele>0</ele>
        <time>2020-07-21T17:39:55Z</time>
      </trkpt>
      <trkpt lat="51.200532054668" lon="4.450992161075">
        <ele>2.2</ele>
        <time>2020-07-21T17:40:12Z</time>
      </trkpt>
      <trkpt lat="51.200982917069" lon="4.451527429209">
        <ele>0</ele>
        <time>2020-07-21T17:40:33Z</time>
      </trkpt>
      <trkpt lat="51.201505528534" lon="4.451688529327">
        <ele>0</ele>
        <time>2020-07-21T17:40:53Z</time>
      </trkpt>
      <trkpt lat="51.202071725879" lon="4.451665562921">
        <ele>0</ele>
        <time>2020-07-21T17:41:09Z</time>
      </trkpt>
      <trkpt lat="51.202628451677" lon="4.451750220111">
        <ele>0</ele>
        <time>2020-07-21T17:41:28Z</time>
      </trkpt>
      <trkpt lat="51.203169251865" lon="4.451947027123">
        <ele>0</ele>
        <time>2020-07-21T17:41:47Z</time>
      </trkpt>
      <trkpt lat="51.203695132271" lon="4.451752483224">
        <ele>0</ele>
        <time>2020-07-21T17:42:04Z</time>
      </trkpt>
      <trkpt lat="51.204255629924" lon="4.451819538424">
        <ele>0</ele>
        <time>2020-07-21T17:42:22Z</time>
      </trkpt>
      <trkpt lat="51.204768434566" lon="4.451559028972">
        <ele>3.6</ele>
        <time>2020-07-21T17:42:42Z</time>
      </trkpt>
      <trkpt lat="51.205187697204" lon="4.451018815517">
        <ele>0.6</ele>
        <time>2020-07-21T17:43:02Z</time>
      </trkpt>
      <trkpt lat="51.205539066452" lon="4.450339294884">
        <ele>0</ele>
        <time>2020-07-21T17:43:24Z</time>
      </trkpt>
      <trkpt lat="51.205674015042" lon="4.450082222011">
        <ele>0</ele>
        <time>2020-07-21T17:43:32Z</time>
      </trkpt>
      <trkpt lat="51.205797312791" lon="4.450152378514">
        <ele>7.2</ele>
        <time>2020-07-21T17:43:38Z</time>
      </trkpt>
      <trkpt lat="51.206003088436" lon="4.449540164538">
        <ele>5.2</ele>
        <time>2020-07-21T17:44:02Z</time>
      </trkpt>
      <trkpt lat="51.205924466214" lon="4.449317122179">
        <ele>4.4</ele>
        <time>2020-07-21T17:44:09Z</time>
      </trkpt>
      <trkpt lat="51.20630785432" lon="4.448742207658">
        <ele>1.2</ele>
        <time>2020-07-21T17:44:29Z</time>
      </trkpt>
      <trkpt lat="51.206540703502" lon="4.447950704841">
        <ele>1</ele>
        <time>2020-07-21T17:44:49Z</time>
      </trkpt>
      <trkpt lat="51.206654697342" lon="4.447417196906">
        <ele>0.4</ele>
        <time>2020-07-21T17:45:04Z</time>
      </trkpt>
      <trkpt lat="51.206710017882" lon="4.447199938058">
        <ele>0</ele>
        <time>2020-07-21T17:45:12Z</time>
      </trkpt>
      <trkpt lat="51.206725943492" lon="4.447160962223">
        <ele>0</ele>
        <time>2020-07-21T17:45:14Z</time>
      </trkpt>
      <trkpt lat="51.207023165666" lon="4.446481525409">
        <ele>0</ele>
        <time>2020-07-21T17:45:41Z</time>
      </trkpt>
      <trkpt lat="51.207571761021" lon="4.446309947916">
        <ele>0</ele>
        <time>2020-07-21T17:46:02Z</time>
      </trkpt>
      <trkpt lat="51.2080948754" lon="4.446008367154">
        <ele>0.6</ele>
        <time>2020-07-21T17:46:26Z</time>
      </trkpt>
      <trkpt lat="51.208520843558" lon="4.445794461066">
        <ele>2</ele>
        <time>2020-07-21T17:46:42Z</time>
      </trkpt>
      <trkpt lat="51.208665766609" lon="4.446639105129">
        <ele>5.2</ele>
        <time>2020-07-21T17:47:01Z</time>
      </trkpt>
      <trkpt lat="51.208694767983" lon="4.446644134269">
        <ele>5.4</ele>
        <time>2020-07-21T17:47:03Z</time>
      </trkpt>
      <trkpt lat="51.208835500084" lon="4.446576240879">
        <ele>3.8</ele>
        <time>2020-07-21T17:47:11Z</time>
      </trkpt>
      <trkpt lat="51.208735168741" lon="4.445744924037">
        <ele>0</ele>
        <time>2020-07-21T17:47:31Z</time>
      </trkpt>
      <trkpt lat="51.208636932873" lon="4.445401349956">
        <ele>0</ele>
        <time>2020-07-21T17:47:40Z</time>
      </trkpt>
      <trkpt lat="51.208611787173" lon="4.444863064338">
        <ele>0</ele>
        <time>2020-07-21T17:47:58Z</time>
      </trkpt>
      <trkpt lat="51.209127944575" lon="4.445059452255">
        <ele>4.2</ele>
        <time>2020-07-21T17:48:16Z</time>
      </trkpt>
      <trkpt lat="51.209616022612" lon="4.445470165355">
        <ele>1.4</ele>
        <time>2020-07-21T17:48:32Z</time>
      </trkpt>
      <trkpt lat="51.210094210007" lon="4.445891942563">
        <ele>0</ele>
        <time>2020-07-21T17:48:49Z</time>
      </trkpt>
      <trkpt lat="51.210576336895" lon="4.446320090015">
        <ele>0</ele>
        <time>2020-07-21T17:49:07Z</time>
      </trkpt>
      <trkpt lat="51.211044801286" lon="4.44675050058">
        <ele>0</ele>
        <time>2020-07-21T17:49:24Z</time>
      </trkpt>
      <trkpt lat="51.211551487141" lon="4.4470757183">
        <ele>0</ele>
        <time>2020-07-21T17:49:41Z</time>
      </trkpt>
      <trkpt lat="51.212074852977" lon="4.447296497546">
        <ele>0</ele>
        <time>2020-07-21T17:49:53Z</time>
      </trkpt>
      <trkpt lat="51.212623951246" lon="4.447595060824">
        <ele>0</ele>
        <time>2020-07-21T17:50:03Z</time>
      </trkpt>
      <trkpt lat="51.213110771998" lon="4.448023795009">
        <ele>0</ele>
        <time>2020-07-21T17:50:13Z</time>
      </trkpt>
      <trkpt lat="51.213292826866" lon="4.44867833758">
        <ele>0</ele>
        <time>2020-07-21T17:50:35Z</time>
      </trkpt>
      <trkpt lat="51.213278074722" lon="4.449480736867">
        <ele>0</ele>
        <time>2020-07-21T17:50:58Z</time>
      </trkpt>
      <trkpt lat="51.213445545084" lon="4.450331415898">
        <ele>0</ele>
        <time>2020-07-21T17:51:15Z</time>
      </trkpt>
      <trkpt lat="51.213543864771" lon="4.451200535109">
        <ele>0</ele>
        <time>2020-07-21T17:51:31Z</time>
      </trkpt>
      <trkpt lat="51.213640088983" lon="4.452084322645">
        <ele>0</ele>
        <time>2020-07-21T17:51:47Z</time>
      </trkpt>
      <trkpt lat="51.213690128926" lon="4.452948496535">
        <ele>0</ele>
        <time>2020-07-21T17:52:14Z</time>
      </trkpt>
      <trkpt lat="51.213684513053" lon="4.453801606317">
        <ele>0</ele>
        <time>2020-07-21T17:52:32Z</time>
      </trkpt>
      <trkpt lat="51.213704964889" lon="4.454689417165">
        <ele>0</ele>
        <time>2020-07-21T17:52:49Z</time>
      </trkpt>
      <trkpt lat="51.213691050935" lon="4.455577814746">
        <ele>0</ele>
        <time>2020-07-21T17:53:06Z</time>
      </trkpt>
      <trkpt lat="51.213683171949" lon="4.456469397449">
        <ele>0</ele>
        <time>2020-07-21T17:53:25Z</time>
      </trkpt>
      <trkpt lat="51.2138364769" lon="4.457305240517">
        <ele>0</ele>
        <time>2020-07-21T17:53:47Z</time>
      </trkpt>
      <trkpt lat="51.214016771569" lon="4.458110573469">
        <ele>0</ele>
        <time>2020-07-21T17:54:10Z</time>
      </trkpt>
      <trkpt lat="51.213989614213" lon="4.458151896236">
        <ele>0</ele>
        <time>2020-07-21T17:54:12Z</time>
      </trkpt>
      <trkpt lat="51.213729775313" lon="4.457988449186">
        <ele>0</ele>
        <time>2020-07-21T17:54:26Z</time>
      </trkpt>
      <trkpt lat="51.213729859132" lon="4.458047793038">
        <ele>0</ele>
        <time>2020-07-21T17:55:20Z</time>
      </trkpt>
      <trkpt lat="51.21396974911" lon="4.458842313339">
        <ele>0</ele>
        <time>2020-07-21T17:55:46Z</time>
      </trkpt>
      <trkpt lat="51.214231934942" lon="4.459659548589">
        <ele>4</ele>
        <time>2020-07-21T17:56:04Z</time>
      </trkpt>
      <trkpt lat="51.21454223288" lon="4.460397993979">
        <ele>2.8</ele>
        <time>2020-07-21T17:56:20Z</time>
      </trkpt>
      <trkpt lat="51.214870216627" lon="4.46108019682">
        <ele>0</ele>
        <time>2020-07-21T17:56:39Z</time>
      </trkpt>
      <trkpt lat="51.215171629751" lon="4.461834735458">
        <ele>0</ele>
        <time>2020-07-21T17:56:56Z</time>
      </trkpt>
      <trkpt lat="51.21541143591" lon="4.462424066847">
        <ele>0</ele>
        <time>2020-07-21T17:57:10Z</time>
      </trkpt>
      <trkpt lat="51.215099042497" lon="4.463033095701">
        <ele>0</ele>
        <time>2020-07-21T17:57:28Z</time>
      </trkpt>
      <trkpt lat="51.21457492229" lon="4.463299137207">
        <ele>0</ele>
        <time>2020-07-21T17:57:53Z</time>
      </trkpt>
      <trkpt lat="51.214037223405" lon="4.463384884044">
        <ele>0</ele>
        <time>2020-07-21T17:58:13Z</time>
      </trkpt>
      <trkpt lat="51.213492316086" lon="4.463520251729">
        <ele>0</ele>
        <time>2020-07-21T17:58:33Z</time>
      </trkpt>
      <trkpt lat="51.212935925564" lon="4.46368277677">
        <ele>0</ele>
        <time>2020-07-21T17:58:51Z</time>
      </trkpt>
      <trkpt lat="51.21237132078" lon="4.463731140333">
        <ele>0</ele>
        <time>2020-07-21T17:59:08Z</time>
      </trkpt>
      <trkpt lat="51.211834962999" lon="4.463838344834">
        <ele>0</ele>
        <time>2020-07-21T17:59:24Z</time>
      </trkpt>
      <trkpt lat="51.211515947885" lon="4.464452570466">
        <ele>0</ele>
        <time>2020-07-21T17:59:41Z</time>
      </trkpt>
      <trkpt lat="51.211379155277" lon="4.465326970274">
        <ele>0</ele>
        <time>2020-07-21T17:59:59Z</time>
      </trkpt>
      <trkpt lat="51.211491388918" lon="4.466195921847">
        <ele>0</ele>
        <time>2020-07-21T18:00:16Z</time>
      </trkpt>
      <trkpt lat="51.211554588444" lon="4.467061185384">
        <ele>0</ele>
        <time>2020-07-21T18:00:32Z</time>
      </trkpt>
      <trkpt lat="51.211505554329" lon="4.467936339563">
        <ele>0</ele>
        <time>2020-07-21T18:00:50Z</time>
      </trkpt>
      <trkpt lat="51.211420897139" lon="4.468818199262">
        <ele>0</ele>
        <time>2020-07-21T18:01:07Z</time>
      </trkpt>
      <trkpt lat="51.211474289842" lon="4.469669465026">
        <ele>0</ele>
        <time>2020-07-21T18:01:22Z</time>
      </trkpt>
      <trkpt lat="51.211653997778" lon="4.470503296438">
        <ele>0</ele>
        <time>2020-07-21T18:01:39Z</time>
      </trkpt>
      <trkpt lat="51.211901347647" lon="4.471279041283">
        <ele>0</ele>
        <time>2020-07-21T18:01:56Z</time>
      </trkpt>
      <trkpt lat="51.212287417961" lon="4.471939367365">
        <ele>0</ele>
        <time>2020-07-21T18:02:14Z</time>
      </trkpt>
      <trkpt lat="51.21262696873" lon="4.472663898801">
        <ele>4.4</ele>
        <time>2020-07-21T18:02:33Z</time>
      </trkpt>
      <trkpt lat="51.212892926417" lon="4.473424472407">
        <ele>1.8</ele>
        <time>2020-07-21T18:02:50Z</time>
      </trkpt>
      <trkpt lat="51.213138599906" lon="4.474197535044">
        <ele>0</ele>
        <time>2020-07-21T18:03:06Z</time>
      </trkpt>
      <trkpt lat="51.213359630609" lon="4.475035305949">
        <ele>0</ele>
        <time>2020-07-21T18:03:21Z</time>
      </trkpt>
      <trkpt lat="51.213523496754" lon="4.475906185359">
        <ele>0</ele>
        <time>2020-07-21T18:03:37Z</time>
      </trkpt>
      <trkpt lat="51.213665653778" lon="4.476743201893">
        <ele>0</ele>
        <time>2020-07-21T18:03:54Z</time>
      </trkpt>
      <trkpt lat="51.213945609238" lon="4.477497991988">
        <ele>0</ele>
        <time>2020-07-21T18:04:13Z</time>
      </trkpt>
      <trkpt lat="51.214378199097" lon="4.478083802979">
        <ele>0</ele>
        <time>2020-07-21T18:04:32Z</time>
      </trkpt>
      <trkpt lat="51.214833923" lon="4.478574144129">
        <ele>0</ele>
        <time>2020-07-21T18:04:50Z</time>
      </trkpt>
      <trkpt lat="51.215350750954" lon="4.478828199518">
        <ele>0</ele>
        <time>2020-07-21T18:05:11Z</time>
      </trkpt>
      <trkpt lat="51.215761966968" lon="4.478352945788">
        <ele>0</ele>
        <time>2020-07-21T18:05:29Z</time>
      </trkpt>
      <trkpt lat="51.216123310677" lon="4.477693625534">
        <ele>0</ele>
        <time>2020-07-21T18:05:47Z</time>
      </trkpt>
      <trkpt lat="51.216663859408" lon="4.477592036906">
        <ele>0</ele>
        <time>2020-07-21T18:06:07Z</time>
      </trkpt>
      <trkpt lat="51.217057724889" lon="4.477564963369">
        <ele>0</ele>
        <time>2020-07-21T18:06:24Z</time>
      </trkpt>
      <trkpt lat="51.217444130479" lon="4.477058696609">
        <ele>0</ele>
        <time>2020-07-21T18:06:49Z</time>
      </trkpt>
      <trkpt lat="51.217981242631" lon="4.477178054865">
        <ele>0</ele>
        <time>2020-07-21T18:07:10Z</time>
      </trkpt>
      <trkpt lat="51.218518522421" lon="4.4772086488">
        <ele>0</ele>
        <time>2020-07-21T18:07:31Z</time>
      </trkpt>
      <trkpt lat="51.218684148765" lon="4.477131451501">
        <ele>1.6</ele>
        <time>2020-07-21T18:07:40Z</time>
      </trkpt>
      <trkpt lat="51.218861006855" lon="4.477951704235">
        <ele>0</ele>
        <time>2020-07-21T18:08:02Z</time>
      </trkpt>
      <trkpt lat="51.219195444665" lon="4.478743290871">
        <ele>12.6</ele>
        <time>2020-07-21T18:08:19Z</time>
      </trkpt>
      <trkpt lat="51.219417397377" lon="4.479582570518">
        <ele>14.6</ele>
        <time>2020-07-21T18:08:34Z</time>
      </trkpt>
      <trkpt lat="51.21947246646" lon="4.48048178075">
        <ele>8</ele>
        <time>2020-07-21T18:08:55Z</time>
      </trkpt>
      <trkpt lat="51.219486883328" lon="4.480635504796">
        <ele>8.6</ele>
        <time>2020-07-21T18:09:02Z</time>
      </trkpt>
      <trkpt lat="51.219463833103" lon="4.480573394917">
        <ele>3.8</ele>
        <time>2020-07-21T18:09:23Z</time>
      </trkpt>
      <trkpt lat="51.219985354921" lon="4.480403996718">
        <ele>7.6</ele>
        <time>2020-07-21T18:09:49Z</time>
      </trkpt>
      <trkpt lat="51.220499165391" lon="4.480071151469">
        <ele>8</ele>
        <time>2020-07-21T18:10:06Z</time>
      </trkpt>
      <trkpt lat="51.221015490431" lon="4.479804774687">
        <ele>4.2</ele>
        <time>2020-07-21T18:10:22Z</time>
      </trkpt>
      <trkpt lat="51.221236604953" lon="4.479097761422">
        <ele>0.8</ele>
        <time>2020-07-21T18:10:45Z</time>
      </trkpt>
      <trkpt lat="51.221607923123" lon="4.478470879121">
        <ele>0</ele>
        <time>2020-07-21T18:11:09Z</time>
      </trkpt>
      <trkpt lat="51.221982594053" lon="4.477827819753">
        <ele>0</ele>
        <time>2020-07-21T18:11:27Z</time>
      </trkpt>
      <trkpt lat="51.222362126485" lon="4.477211498646">
        <ele>0</ele>
        <time>2020-07-21T18:11:44Z</time>
      </trkpt>
      <trkpt lat="51.222758003622" lon="4.47657246259">
        <ele>0</ele>
        <time>2020-07-21T18:12:03Z</time>
      </trkpt>
      <trkpt lat="51.223157652614" lon="4.475962344089">
        <ele>0</ele>
        <time>2020-07-21T18:12:21Z</time>
      </trkpt>
      <trkpt lat="51.223561827832" lon="4.475348789009">
        <ele>0</ele>
        <time>2020-07-21T18:12:39Z</time>
      </trkpt>
      <trkpt lat="51.223621842236" lon="4.475272513719">
        <ele>0</ele>
        <time>2020-07-21T18:12:42Z</time>
      </trkpt>
      <trkpt lat="51.223699626268" lon="4.47535457252">
        <ele>0</ele>
        <time>2020-07-21T18:12:46Z</time>
      </trkpt>
      <trkpt lat="51.224597495396" lon="4.474456787211">
        <ele>0</ele>
        <time>2020-07-21T18:13:22Z</time>
      </trkpt>
      <trkpt lat="51.225028408875" lon="4.473899977594">
        <ele>4.6</ele>
        <time>2020-07-21T18:13:41Z</time>
      </trkpt>
      <trkpt lat="51.225470302643" lon="4.473386083305">
        <ele>7.4</ele>
        <time>2020-07-21T18:13:59Z</time>
      </trkpt>
      <trkpt lat="51.22593072041" lon="4.472888701359">
        <ele>7.2</ele>
        <time>2020-07-21T18:14:15Z</time>
      </trkpt>
      <trkpt lat="51.226415026592" lon="4.4724393477">
        <ele>5</ele>
        <time>2020-07-21T18:14:32Z</time>
      </trkpt>
      <trkpt lat="51.226880054404" lon="4.471991251326">
        <ele>0</ele>
        <time>2020-07-21T18:14:49Z</time>
      </trkpt>
      <trkpt lat="51.227334772479" lon="4.471475513019">
        <ele>0</ele>
        <time>2020-07-21T18:15:07Z</time>
      </trkpt>
      <trkpt lat="51.227800135567" lon="4.470968156612">
        <ele>0.4</ele>
        <time>2020-07-21T18:15:26Z</time>
      </trkpt>
      <trkpt lat="51.228259463687" lon="4.470447975898">
        <ele>0.4</ele>
        <time>2020-07-21T18:15:46Z</time>
      </trkpt>
      <trkpt lat="51.228455851604" lon="4.470265753392">
        <ele>1.2</ele>
        <time>2020-07-21T18:15:55Z</time>
      </trkpt>
      <trkpt lat="51.22854419683" lon="4.470306657064">
        <ele>0</ele>
        <time>2020-07-21T18:16:00Z</time>
      </trkpt>
      <trkpt lat="51.228678810144" lon="4.470228453937">
        <ele>0</ele>
        <time>2020-07-21T18:16:09Z</time>
      </trkpt>
      <trkpt lat="51.228703369111" lon="4.470221832236">
        <ele>0</ele>
        <time>2020-07-21T18:16:27Z</time>
      </trkpt>
      <trkpt lat="51.228714684676" lon="4.470211773956">
        <ele>0</ele>
        <time>2020-07-21T18:16:28Z</time>
      </trkpt>
      <trkpt lat="51.22926252566" lon="4.470142455643">
        <ele>0</ele>
        <time>2020-07-21T18:16:46Z</time>
      </trkpt>
      <trkpt lat="51.229819000001" lon="4.470009267252">
        <ele>0</ele>
        <time>2020-07-21T18:17:04Z</time>
      </trkpt>
      <trkpt lat="51.230343539303" lon="4.469699220771">
        <ele>0</ele>
        <time>2020-07-21T18:17:23Z</time>
      </trkpt>
      <trkpt lat="51.230853829375" lon="4.469330836266">
        <ele>0</ele>
        <time>2020-07-21T18:17:45Z</time>
      </trkpt>
      <trkpt lat="51.23130519469" lon="4.468824737144">
        <ele>0</ele>
        <time>2020-07-21T18:18:06Z</time>
      </trkpt>
      <trkpt lat="51.231653546454" lon="4.468120070811">
        <ele>0</ele>
        <time>2020-07-21T18:18:23Z</time>
      </trkpt>
      <trkpt lat="51.232008017005" lon="4.467492015044">
        <ele>0</ele>
        <time>2020-07-21T18:18:41Z</time>
      </trkpt>
      <trkpt lat="51.231895448088" lon="4.46713779595">
        <ele>0</ele>
        <time>2020-07-21T18:18:59Z</time>
      </trkpt>
      <trkpt lat="51.231363448895" lon="4.467121283607">
        <ele>0</ele>
        <time>2020-07-21T18:19:18Z</time>
      </trkpt>
      <trkpt lat="51.230823738354" lon="4.467263356812">
        <ele>0</ele>
        <time>2020-07-21T18:19:36Z</time>
      </trkpt>
      <trkpt lat="51.230738075336" lon="4.467265033192">
        <ele>0</ele>
        <time>2020-07-21T18:19:39Z</time>
      </trkpt>
      <trkpt lat="51.230772189669" lon="4.46639683599">
        <ele>0</ele>
        <time>2020-07-21T18:19:57Z</time>
      </trkpt>
      <trkpt lat="51.230801777776" lon="4.465532745919">
        <ele>0</ele>
        <time>2020-07-21T18:20:15Z</time>
      </trkpt>
      <trkpt lat="51.230726340676" lon="4.464662453242">
        <ele>0</ele>
        <time>2020-07-21T18:20:34Z</time>
      </trkpt>
      <trkpt lat="51.230599103434" lon="4.464168675513">
        <ele>0</ele>
        <time>2020-07-21T18:20:48Z</time>
      </trkpt>
      <trkpt lat="51.230430459606" lon="4.463451855425">
        <ele>0</ele>
        <time>2020-07-21T18:21:06Z</time>
      </trkpt>
      <trkpt lat="51.230462227007" lon="4.46342712882">
        <ele>0</ele>
        <time>2020-07-21T18:21:08Z</time>
      </trkpt>
      <trkpt lat="51.231009229801" lon="4.463243481391">
        <ele>0</ele>
        <time>2020-07-21T18:21:27Z</time>
      </trkpt>
      <trkpt lat="51.231205869175" lon="4.463078609418">
        <ele>1</ele>
        <time>2020-07-21T18:21:37Z</time>
      </trkpt>
      <trkpt lat="51.231380967066" lon="4.463126889162">
        <ele>0.8</ele>
        <time>2020-07-21T18:21:44Z</time>
      </trkpt>
      <trkpt lat="51.231833589666" lon="4.46363919089">
        <ele>0</ele>
        <time>2020-07-21T18:22:04Z</time>
      </trkpt>
      <trkpt lat="51.231917576304" lon="4.463613877552">
        <ele>0</ele>
        <time>2020-07-21T18:22:07Z</time>
      </trkpt>
      <trkpt lat="51.23211656261" lon="4.462820782174">
        <ele>0</ele>
        <time>2020-07-21T18:22:25Z</time>
      </trkpt>
      <trkpt lat="51.232227790423" lon="4.461976138111">
        <ele>0</ele>
        <time>2020-07-21T18:22:45Z</time>
      </trkpt>
      <trkpt lat="51.232080436621" lon="4.461139289215">
        <ele>0</ele>
        <time>2020-07-21T18:23:06Z</time>
      </trkpt>
      <trkpt lat="51.231936435579" lon="4.460275450601">
        <ele>0</ele>
        <time>2020-07-21T18:23:33Z</time>
      </trkpt>
      <trkpt lat="51.231774832547" lon="4.459441786827">
        <ele>0</ele>
        <time>2020-07-21T18:23:53Z</time>
      </trkpt>
      <trkpt lat="51.231611469316" lon="4.458602255723">
        <ele>0</ele>
        <time>2020-07-21T18:24:11Z</time>
      </trkpt>
      <trkpt lat="51.231583892865" lon="4.458323306091">
        <ele>0</ele>
        <time>2020-07-21T18:24:18Z</time>
      </trkpt>
      <trkpt lat="51.231613480972" lon="4.458307045205">
        <ele>0</ele>
        <time>2020-07-21T18:24:20Z</time>
      </trkpt>
      <trkpt lat="51.232115137687" lon="4.457896415924">
        <ele>0</ele>
        <time>2020-07-21T18:24:41Z</time>
      </trkpt>
      <trkpt lat="51.232476649034" lon="4.457635152101">
        <ele>0</ele>
        <time>2020-07-21T18:24:56Z</time>
      </trkpt>
      <trkpt lat="51.232492239368" lon="4.457559128268">
        <ele>0</ele>
        <time>2020-07-21T18:24:59Z</time>
      </trkpt>
      <trkpt lat="51.23248285164" lon="4.457464831893">
        <ele>0</ele>
        <time>2020-07-21T18:25:02Z</time>
      </trkpt>
      <trkpt lat="51.232474553559" lon="4.457355364279">
        <ele>2.8</ele>
        <time>2020-07-21T18:25:40Z</time>
      </trkpt>
      <trkpt lat="51.23246022051" lon="4.457263498655">
        <ele>3.4</ele>
        <time>2020-07-21T18:25:43Z</time>
      </trkpt>
      <trkpt lat="51.232425603263" lon="4.457059902304">
        <ele>3.4</ele>
        <time>2020-07-21T18:25:48Z</time>
      </trkpt>
      <trkpt lat="51.232253355218" lon="4.456226909082">
        <ele>3</ele>
        <time>2020-07-21T18:26:07Z</time>
      </trkpt>
      <trkpt lat="51.232108432167" lon="4.455365668857">
        <ele>2.6</ele>
        <time>2020-07-21T18:26:25Z</time>
      </trkpt>
      <trkpt lat="51.231963257659" lon="4.454522617355">
        <ele>2.2</ele>
        <time>2020-07-21T18:26:40Z</time>
      </trkpt>
      <trkpt lat="51.23181481421" lon="4.453684678812">
        <ele>1.8</ele>
        <time>2020-07-21T18:26:56Z</time>
      </trkpt>
      <trkpt lat="51.231676848136" lon="4.452853697246">
        <ele>1.4</ele>
        <time>2020-07-21T18:27:13Z</time>
      </trkpt>
      <trkpt lat="51.23152396228" lon="4.451969742072">
        <ele>2.4</ele>
        <time>2020-07-21T18:27:29Z</time>
      </trkpt>
      <trkpt lat="51.231372333709" lon="4.451095426083">
        <ele>2.8</ele>
        <time>2020-07-21T18:27:45Z</time>
      </trkpt>
      <trkpt lat="51.231223303527" lon="4.450246507251">
        <ele>2.6</ele>
        <time>2020-07-21T18:28:02Z</time>
      </trkpt>
      <trkpt lat="51.231118026863" lon="4.449708137814">
        <ele>1.6</ele>
        <time>2020-07-21T18:28:14Z</time>
      </trkpt>
      <trkpt lat="51.230930356122" lon="4.44887279766">
        <ele>0.4</ele>
        <time>2020-07-21T18:28:33Z</time>
      </trkpt>
      <trkpt lat="51.230737069508" lon="4.448063609034">
        <ele>0.6</ele>
        <time>2020-07-21T18:28:49Z</time>
      </trkpt>
      <trkpt lat="51.230512183131" lon="4.447264897783">
        <ele>0</ele>
        <time>2020-07-21T18:29:05Z</time>
      </trkpt>
      <trkpt lat="51.230281261786" lon="4.446469623111">
        <ele>0</ele>
        <time>2020-07-21T18:29:21Z</time>
      </trkpt>
      <trkpt lat="51.230030894433" lon="4.445662194684">
        <ele>0</ele>
        <time>2020-07-21T18:29:37Z</time>
      </trkpt>
      <trkpt lat="51.22984255314" lon="4.44503221108">
        <ele>0</ele>
        <time>2020-07-21T18:29:51Z</time>
      </trkpt>
      <trkpt lat="51.229802068563" lon="4.444921989095">
        <ele>0</ele>
        <time>2020-07-21T18:30:38Z</time>
      </trkpt>
      <trkpt lat="51.229799134898" lon="4.444894580282">
        <ele>0</ele>
        <time>2020-07-21T18:30:40Z</time>
      </trkpt>
      <trkpt lat="51.229792177921" lon="4.444867590564">
        <ele>0</ele>
        <time>2020-07-21T18:30:43Z</time>
      </trkpt>
      <trkpt lat="51.229541475292" lon="4.444106933139">
        <ele>0</ele>
        <time>2020-07-21T18:31:03Z</time>
      </trkpt>
      <trkpt lat="51.229452208057" lon="4.443828989335">
        <ele>0</ele>
        <time>2020-07-21T18:31:11Z</time>
      </trkpt>
      <trkpt lat="51.228939235777" lon="4.444102909827">
        <ele>0</ele>
        <time>2020-07-21T18:31:29Z</time>
      </trkpt>
      <trkpt lat="51.228805376834" lon="4.444270464008">
        <ele>0</ele>
        <time>2020-07-21T18:31:38Z</time>
      </trkpt>
      <trkpt lat="51.228763551153" lon="4.444343637995">
        <ele>0</ele>
        <time>2020-07-21T18:31:48Z</time>
      </trkpt>
      <trkpt lat="51.228608318365" lon="4.444567434725">
        <ele>0</ele>
        <time>2020-07-21T18:31:57Z</time>
      </trkpt>
      <trkpt lat="51.22857437167" lon="4.444605404732">
        <ele>0</ele>
        <time>2020-07-21T18:31:59Z</time>
      </trkpt>
      <trkpt lat="51.228517290931" lon="4.444781173175">
        <ele>0</ele>
        <time>2020-07-21T18:32:05Z</time>
      </trkpt>
      <trkpt lat="51.228518464397" lon="4.444713447423">
        <ele>0</ele>
        <time>2020-07-21T18:32:09Z</time>
      </trkpt>
      <trkpt lat="51.228929177497" lon="4.444127301156">
        <ele>0</ele>
        <time>2020-07-21T18:32:27Z</time>
      </trkpt>
      <trkpt lat="51.228973936843" lon="4.444024287605">
        <ele>0</ele>
        <time>2020-07-21T18:32:30Z</time>
      </trkpt>
      <trkpt lat="51.229026575175" lon="4.444072064435">
        <ele>0</ele>
        <time>2020-07-21T18:32:33Z</time>
      </trkpt>
      <trkpt lat="51.228778387116" lon="4.444315055716">
        <ele>0</ele>
        <time>2020-07-21T18:32:48Z</time>
      </trkpt>
      <trkpt lat="51.228412014267" lon="4.444988541381">
        <ele>0</ele>
        <time>2020-07-21T18:33:05Z</time>
      </trkpt>
      <trkpt lat="51.228289889984" lon="4.445194903759">
        <ele>0</ele>
        <time>2020-07-21T18:33:11Z</time>
      </trkpt>
      <trkpt lat="51.228581747742" lon="4.444518652067">
        <ele>0</ele>
        <time>2020-07-21T18:33:30Z</time>
      </trkpt>
      <trkpt lat="51.228665315285" lon="4.444428546642">
        <ele>0</ele>
        <time>2020-07-21T18:33:34Z</time>
      </trkpt>
      <trkpt lat="51.22858107719" lon="4.444545977061">
        <ele>0</ele>
        <time>2020-07-21T18:33:41Z</time>
      </trkpt>
      <trkpt lat="51.228547046676" lon="4.444622419989">
        <ele>0</ele>
        <time>2020-07-21T18:33:43Z</time>
      </trkpt>
      <trkpt lat="51.22829693078" lon="4.445260450217">
        <ele>0</ele>
        <time>2020-07-21T18:33:58Z</time>
      </trkpt>
      <trkpt lat="51.227983028625" lon="4.445997722141">
        <ele>0</ele>
        <time>2020-07-21T18:34:16Z</time>
      </trkpt>
      <trkpt lat="51.227594276103" lon="4.446597530905">
        <ele>0</ele>
        <time>2020-07-21T18:34:31Z</time>
      </trkpt>
      <trkpt lat="51.227194794749" lon="4.447189544502">
        <ele>0</ele>
        <time>2020-07-21T18:34:46Z</time>
      </trkpt>
      <trkpt lat="51.226774610102" lon="4.447803434858">
        <ele>0</ele>
        <time>2020-07-21T18:35:02Z</time>
      </trkpt>
      <trkpt lat="51.226395161489" lon="4.448428137865">
        <ele>0</ele>
        <time>2020-07-21T18:35:17Z</time>
      </trkpt>
      <trkpt lat="51.226286448246" lon="4.448846562313">
        <ele>0</ele>
        <time>2020-07-21T18:35:26Z</time>
      </trkpt>
      <trkpt lat="51.22657780309" lon="4.449316535446">
        <ele>0</ele>
        <time>2020-07-21T18:35:38Z</time>
      </trkpt>
      <trkpt lat="51.226639493874" lon="4.449305471338">
        <ele>0</ele>
        <time>2020-07-21T18:35:40Z</time>
      </trkpt>
      <trkpt lat="51.227059091788" lon="4.448717900148">
        <ele>0</ele>
        <time>2020-07-21T18:36:02Z</time>
      </trkpt>
      <trkpt lat="51.227473744381" lon="4.448105267077">
        <ele>0</ele>
        <time>2020-07-21T18:36:22Z</time>
      </trkpt>
      <trkpt lat="51.227888899888" lon="4.447508056702">
        <ele>0</ele>
        <time>2020-07-21T18:36:40Z</time>
      </trkpt>
      <trkpt lat="51.228279999342" lon="4.446914199087">
        <ele>0</ele>
        <time>2020-07-21T18:37:02Z</time>
      </trkpt>
      <trkpt lat="51.22831956191" lon="4.446889975396">
        <ele>0</ele>
        <time>2020-07-21T18:37:04Z</time>
      </trkpt>
      <trkpt lat="51.228354849709" lon="4.446881844953">
        <ele>0</ele>
        <time>2020-07-21T18:37:08Z</time>
      </trkpt>
      <trkpt lat="51.228397094485" lon="4.446959796623">
        <ele>0</ele>
        <time>2020-07-21T18:37:11Z</time>
      </trkpt>
      <trkpt lat="51.228393993182" lon="4.447195495651">
        <ele>0</ele>
        <time>2020-07-21T18:37:17Z</time>
      </trkpt>
      <trkpt lat="51.228480578209" lon="4.447330947155">
        <ele>0</ele>
        <time>2020-07-21T18:37:25Z</time>
      </trkpt>
      <trkpt lat="51.228460042554" lon="4.447313261346">
        <ele>0</ele>
        <time>2020-07-21T18:37:34Z</time>
      </trkpt>
      <trkpt lat="51.228415283208" lon="4.447001538485">
        <ele>3.4</ele>
        <time>2020-07-21T18:37:54Z</time>
      </trkpt>
      <trkpt lat="51.2284209829" lon="4.447034814628">
        <ele>3.6</ele>
        <time>2020-07-21T18:37:56Z</time>
      </trkpt>
      <trkpt lat="51.228446380057" lon="4.447043950899">
        <ele>3.6</ele>
        <time>2020-07-21T18:37:58Z</time>
      </trkpt>
      <trkpt lat="51.228796994934" lon="4.446369459406">
        <ele>1.4</ele>
        <time>2020-07-21T18:38:15Z</time>
      </trkpt>
      <trkpt lat="51.229174599529" lon="4.445720867984">
        <ele>0</ele>
        <time>2020-07-21T18:38:33Z</time>
      </trkpt>
      <trkpt lat="51.229232434639" lon="4.445631936025">
        <ele>3.8</ele>
        <time>2020-07-21T18:38:55Z</time>
      </trkpt>
      <trkpt lat="51.228825493394" lon="4.446249179141">
        <ele>3</ele>
        <time>2020-07-21T18:39:13Z</time>
      </trkpt>
      <trkpt lat="51.228401201616" lon="4.446844880774">
        <ele>5.2</ele>
        <time>2020-07-21T18:39:30Z</time>
      </trkpt>
      <trkpt lat="51.228539335328" lon="4.447559940663">
        <ele>0</ele>
        <time>2020-07-21T18:39:45Z</time>
      </trkpt>
      <trkpt lat="51.228912413697" lon="4.448202078022">
        <ele>0</ele>
        <time>2020-07-21T18:40:00Z</time>
      </trkpt>
      <trkpt lat="51.229310889223" lon="4.448811777428">
        <ele>0</ele>
        <time>2020-07-21T18:40:18Z</time>
      </trkpt>
      <trkpt lat="51.229818580906" lon="4.448518159471">
        <ele>0</ele>
        <time>2020-07-21T18:40:39Z</time>
      </trkpt>
      <trkpt lat="51.229923773751" lon="4.448431658263">
        <ele>0</ele>
        <time>2020-07-21T18:40:44Z</time>
      </trkpt>
      <trkpt lat="51.229931652737" lon="4.44838413289">
        <ele>0</ele>
        <time>2020-07-21T18:40:46Z</time>
      </trkpt>
      <trkpt lat="51.229557736178" lon="4.446905733368">
        <ele>0</ele>
        <time>2020-07-21T18:41:22Z</time>
      </trkpt>
      <trkpt lat="51.229518760343" lon="4.446900955685">
        <ele>0</ele>
        <time>2020-07-21T18:41:24Z</time>
      </trkpt>
      <trkpt lat="51.229098408058" lon="4.447509146349">
        <ele>0</ele>
        <time>2020-07-21T18:41:42Z</time>
      </trkpt>
      <trkpt lat="51.228841586642" lon="4.447944334597">
        <ele>0</ele>
        <time>2020-07-21T18:41:54Z</time>
      </trkpt>
      <trkpt lat="51.228849465628" lon="4.448023292095">
        <ele>0</ele>
        <time>2020-07-21T18:41:56Z</time>
      </trkpt>
      <trkpt lat="51.229043506613" lon="4.448537605479">
        <ele>0</ele>
        <time>2020-07-21T18:42:11Z</time>
      </trkpt>
      <trkpt lat="51.22891886776" lon="4.448716978139">
        <ele>0</ele>
        <time>2020-07-21T18:42:21Z</time>
      </trkpt>
      <trkpt lat="51.228867570532" lon="4.448745644237">
        <ele>0</ele>
        <time>2020-07-21T18:42:43Z</time>
      </trkpt>
      <trkpt lat="51.228857931347" lon="4.448788894841">
        <ele>0</ele>
        <time>2020-07-21T18:42:45Z</time>
      </trkpt>
      <trkpt lat="51.228525086098" lon="4.449264735304">
        <ele>0</ele>
        <time>2020-07-21T18:43:03Z</time>
      </trkpt>
    </trkseg>
  </trk>
</gpx>